Time;durP1;ratioP1;P1;durP2;ratioP2;P2;SDS_P1;SDS_P2;PMS_P1;PMS_P2;Temp;Humidity;BMP_temperature;BMP_pressure;BME280_temperature;BME280_humidity;BME280_pressure;Samples;Min_cycle;Max_cycle;Signal;HPM_P1;HPM_P2
2022/08/17 00:00:38;;;;;;;294.80;281.40;;;;;;;20.17;96.37;101112.16;5077179;28;20114;-71
2022/08/17 00:03:16;;;;;;;288.85;275.75;;;;;;;20.16;95.91;101111.31;5076050;28;20028;-72
2022/08/17 00:05:47;;;;;;;282.90;270.30;;;;;;;20.15;95.24;101107.00;5064413;28;20059;-71
2022/08/17 00:08:14;;;;;;;276.50;263.88;;;;;;;20.16;95.40;101113.19;5068820;28;20024;-71
2022/08/17 00:10:41;;;;;;;273.50;261.23;;;;;;;20.12;94.90;101118.97;5080909;28;20024;-71
2022/08/17 00:13:17;;;;;;;254.70;243.65;;;;;;;19.96;95.53;101081.88;5074556;28;20031;-71
2022/08/17 00:15:43;;;;;;;254.98;244.07;;;;;;;20.05;96.40;101111.94;5080883;28;20024;-71
2022/08/17 00:18:10;;;;;;;258.42;247.23;;;;;;;19.97;95.88;101104.97;5082328;28;20036;-71
2022/08/17 00:20:35;;;;;;;245.45;234.48;;;;;;;20.02;96.43;101105.16;5074576;28;20036;-71
2022/08/17 00:23:10;;;;;;;263.13;250.80;;;;;;;20.01;99.87;101100.84;5085548;28;20447;-71
2022/08/17 00:25:37;;;;;;;242.20;231.15;;;;;;;19.95;97.80;101101.66;5077468;28;20077;-71
2022/08/17 00:28:03;;;;;;;236.63;226.25;;;;;;;19.90;96.24;101096.06;5078073;28;20088;-71
2022/08/17 00:30:28;;;;;;;227.32;217.32;;;;;;;19.80;95.44;101077.75;5074647;28;20036;-72
2022/08/17 00:32:54;;;;;;;224.50;214.55;;;;;;;19.88;95.73;101096.31;5075030;28;20049;-72
2022/08/17 00:35:22;;;;;;;207.32;198.43;;;;;;;19.86;96.83;101094.84;5080967;28;20032;-72
2022/08/17 00:37:49;;;;;;;221.18;211.27;;;;;;;19.85;96.49;101098.56;5079186;28;20025;-71
2022/08/17 00:40:15;;;;;;;226.52;216.65;;;;;;;19.69;95.77;101075.66;5079621;28;20028;-71
2022/08/17 00:42:43;;;;;;;225.43;215.68;;;;;;;19.73;94.58;101091.13;5079882;28;20019;-72
2022/08/17 00:45:12;;;;;;;230.38;220.23;;;;;;;19.71;95.55;101090.50;5080453;28;20361;-72
2022/08/17 00:47:38;;;;;;;224.88;214.80;;;;;;;19.73;98.54;101088.47;5075182;28;20053;-72
2022/08/17 00:50:08;;;;;;;227.18;217.32;;;;;;;19.70;97.44;101098.75;5077053;28;20060;-72
2022/08/17 00:52:38;;;;;;;219.55;210.10;;;;;;;19.56;94.91;101081.81;5076551;28;20546;-72
2022/08/17 00:55:06;;;;;;;223.30;213.50;;;;;;;19.59;93.98;101097.47;5073193;28;20090;-72
2022/08/17 00:57:39;;;;;;;209.40;200.23;;;;;;;19.58;95.31;101111.06;5071224;28;20029;-70
2022/08/17 01:00:26;;;;;;;229.23;219.30;;;;;;;19.55;94.92;101130.19;5070931;28;20024;-71
2022/08/17 01:03:06;;;;;;;212.23;202.90;;;;;;;19.53;95.43;101122.34;5067778;28;20032;-70
2022/08/17 01:05:33;;;;;;;211.60;201.95;;;;;;;19.44;96.90;101111.00;5079484;28;20054;-70
2022/08/17 01:08:01;;;;;;;234.43;223.73;;;;;;;19.55;100.00;101117.63;5082204;28;20028;-69
2022/08/17 01:10:33;;;;;;;209.68;199.82;;;;;;;19.39;100.00;101108.13;5081699;28;20515;-69
2022/08/17 01:13:01;;;;;;;204.90;195.82;;;;;;;19.36;100.00;101115.72;5074976;28;20012;-69
2022/08/17 01:15:29;;;;;;;210.18;200.65;;;;;;;19.27;100.00;101099.03;5082350;28;20063;-69
2022/08/17 01:17:55;;;;;;;224.35;214.60;;;;;;;19.14;97.54;101083.78;5073469;28;20028;-71
2022/08/17 01:20:20;;;;;;;209.05;199.70;;;;;;;19.21;96.37;101095.31;5081794;28;20024;-69
2022/08/17 01:22:45;;;;;;;240.43;229.98;;;;;;;19.16;96.23;101087.03;5075530;28;20044;-69
2022/08/17 01:25:11;;;;;;;232.20;222.25;;;;;;;19.10;95.48;101083.34;5079407;28;20122;-69
2022/08/17 01:27:37;;;;;;;235.10;224.65;;;;;;;19.07;96.69;101080.22;5078844;28;20030;-70
2022/08/17 01:30:09;;;;;;;238.95;227.80;;;;;;;19.01;96.39;101081.03;5077830;28;20032;-69
2022/08/17 01:32:34;;;;;;;244.13;233.25;;;;;;;19.01;97.01;101083.69;5077831;28;20472;-69
2022/08/17 01:34:59;;;;;;;236.68;225.85;;;;;;;18.98;97.57;101089.47;5077619;28;20052;-70
2022/08/17 01:37:35;;;;;;;223.45;213.43;;;;;;;18.97;99.10;101088.66;5076607;28;20465;-69
2022/08/17 01:40:28;;;;;;;234.07;223.50;;;;;;;18.88;100.00;101084.50;5079310;28;20029;-69
2022/08/17 01:42:58;;;;;;;231.32;221.27;;;;;;;18.79;100.00;101086.50;5072833;28;20109;-69
2022/08/17 01:45:32;;;;;;;232.88;222.65;;;;;;;18.79;100.00;101091.00;5072530;28;20028;-69
2022/08/17 01:47:58;;;;;;;216.45;207.10;;;;;;;18.69;99.47;101076.13;5075312;28;20031;-69
2022/08/17 01:50:31;;;;;;;229.73;219.82;;;;;;;18.82;100.00;101086.09;5075873;28;20021;-70
2022/08/17 01:53:10;;;;;;;227.95;217.85;;;;;;;18.73;99.84;101076.56;5083590;28;20032;-70
2022/08/17 01:55:57;;;;;;;232.65;222.23;;;;;;;18.81;98.68;101087.13;5073007;28;20450;-70
2022/08/17 01:58:23;;;;;;;220.52;210.90;;;;;;;18.81;97.35;101092.47;5080227;28;20051;-70
2022/08/17 02:00:52;;;;;;;221.23;211.75;;;;;;;18.82;97.19;101091.44;5079554;28;20090;-70
2022/08/17 02:03:18;;;;;;;224.60;214.65;;;;;;;18.81;98.30;101089.78;5079663;28;20298;-70
2022/08/17 02:05:47;;;;;;;216.70;207.18;;;;;;;18.76;99.52;101080.69;5082085;28;20013;-70
2022/08/17 02:08:13;;;;;;;213.18;203.73;;;;;;;18.79;98.48;101091.88;5081006;28;20074;-70
2022/08/17 02:10:39;;;;;;;204.90;195.73;;;;;;;18.72;98.42;101085.59;5078788;28;20060;-70
2022/08/17 02:13:04;;;;;;;220.02;210.02;;;;;;;18.77;98.31;101096.56;5074317;28;20442;-69
2022/08/17 02:15:30;;;;;;;221.32;211.23;;;;;;;18.76;97.53;101091.41;5079863;28;20051;-69
2022/08/17 02:17:56;;;;;;;211.52;202.38;;;;;;;18.73;97.17;101087.28;5080263;28;20024;-70
2022/08/17 02:20:21;;;;;;;213.35;203.82;;;;;;;18.70;95.97;101084.97;5083185;28;20040;-69
2022/08/17 02:22:48;;;;;;;223.32;213.65;;;;;;;18.62;95.46;101085.16;5079366;28;20024;-69
2022/08/17 02:25:17;;;;;;;213.05;203.65;;;;;;;18.53;97.24;101073.81;5070934;28;20127;-69
2022/08/17 02:27:42;;;;;;;207.80;198.85;;;;;;;18.41;98.92;101073.50;5090275;28;20522;-70
2022/08/17 02:30:10;;;;;;;208.20;199.07;;;;;;;18.42;98.61;101085.88;5058674;28;20066;-70
2022/08/17 02:32:36;;;;;;;191.88;183.60;;;;;;;18.55;100.00;101105.66;5081238;28;20028;-70
2022/08/17 02:35:03;;;;;;;218.05;208.70;;;;;;;18.50;100.00;101100.91;5084963;28;20051;-69
2022/08/17 02:37:30;;;;;;;193.43;185.02;;;;;;;18.49;100.00;101097.41;5080780;28;20047;-69
2022/08/17 02:39:57;;;;;;;217.80;208.43;;;;;;;18.58;100.00;101105.28;5078308;28;20063;-69
2022/08/17 02:42:30;;;;;;;197.38;188.80;;;;;;;18.48;100.00;101087.72;5082331;28;20067;-69
2022/08/17 02:44:56;;;;;;;187.32;179.05;;;;;;;18.39;100.00;101083.56;5074045;28;20028;-69
2022/08/17 02:47:23;;;;;;;219.27;209.75;;;;;;;18.48;100.00;101092.25;5082565;28;20107;-69
2022/08/17 02:49:48;;;;;;;216.13;206.65;;;;;;;18.49;100.00;101102.75;5080210;28;20455;-69
2022/08/17 02:52:14;;;;;;;208.10;199.30;;;;;;;18.46;100.00;101105.00;5079373;28;20100;-69
2022/08/17 02:54:40;;;;;;;221.40;211.80;;;;;;;18.42;99.09;101104.56;5058077;28;20020;-69
2022/08/17 02:57:05;;;;;;;226.82;216.95;;;;;;;18.34;99.06;101099.38;5077733;28;20024;-69
2022/08/17 02:59:31;;;;;;;207.77;198.70;;;;;;;18.36;98.59;101108.03;5079406;28;20032;-69
2022/08/17 03:01:56;;;;;;;206.07;197.10;;;;;;;18.15;98.66;101084.84;5078314;28;20035;-69
2022/08/17 03:04:22;;;;;;;197.75;189.05;;;;;;;18.28;98.93;101108.16;5073008;28;20035;-70
2022/08/17 03:06:47;;;;;;;198.80;190.30;;;;;;;18.25;98.31;101096.03;5082566;28;20060;-70
2022/08/17 03:09:12;;;;;;;198.43;189.93;;;;;;;18.26;97.75;101100.34;5076337;28;20032;-69
2022/08/17 03:11:38;;;;;;;195.38;186.82;;;;;;;18.26;98.20;101103.00;5075933;28;20028;-69
2022/08/17 03:14:03;;;;;;;200.65;192.07;;;;;;;18.27;99.17;101110.00;5078314;28;20033;-71
2022/08/17 03:16:29;;;;;;;189.90;181.90;;;;;;;18.18;98.63;101087.13;5074838;28;20054;-69
2022/08/17 03:18:54;;;;;;;190.80;182.88;;;;;;;18.30;98.23;101104.25;5080020;28;20119;-69
2022/08/17 03:21:20;;;;;;;208.15;199.32;;;;;;;18.21;100.00;101089.41;5075588;28;20031;-69
2022/08/17 03:23:45;;;;;;;198.07;189.35;;;;;;;18.30;100.00;101103.44;5077499;28;20419;-70
2022/08/17 03:26:11;;;;;;;193.05;184.75;;;;;;;18.24;100.00;101098.88;5075297;28;20431;-70
2022/08/17 03:28:37;;;;;;;201.07;192.55;;;;;;;18.09;100.00;101082.94;5077219;28;20030;-69
2022/08/17 03:31:04;;;;;;;196.32;188.27;;;;;;;18.09;99.89;101082.94;5075914;28;20021;-69
2022/08/17 03:33:30;;;;;;;219.38;210.30;;;;;;;18.19;99.50;101095.97;5075615;28;20044;-69
2022/08/17 03:35:56;;;;;;;198.50;190.25;;;;;;;18.14;98.57;101087.69;5079588;28;20566;-69
2022/08/17 03:38:21;;;;;;;205.85;197.50;;;;;;;18.17;98.60;101095.34;5070359;28;20032;-70
2022/08/17 03:40:48;;;;;;;212.68;203.73;;;;;;;18.06;97.98;101080.66;5083100;28;20057;-70
2022/08/17 03:43:14;;;;;;;204.35;195.90;;;;;;;18.12;97.11;101090.59;5072795;28;20430;-69
2022/08/17 03:56:48;;;;;;;212.02;203.38;;;;;;;18.01;98.46;101086.59;5071033;28;20067;-69
2022/08/17 03:59:16;;;;;;;213.27;204.00;;;;;;;17.99;98.24;101087.81;5077468;28;20028;-69
2022/08/17 04:01:48;;;;;;;218.75;209.63;;;;;;;17.94;99.35;101083.03;5069974;28;20024;-70
2022/08/17 04:04:13;;;;;;;215.32;206.35;;;;;;;17.90;98.88;101076.44;5079007;28;20034;-70
2022/08/17 04:06:40;;;;;;;212.50;203.43;;;;;;;17.91;99.66;101079.94;5078075;28;20028;-70
2022/08/17 04:09:06;;;;;;;210.05;201.43;;;;;;;17.90;99.24;101076.44;5076916;28;20031;-70
2022/08/17 04:11:33;;;;;;;211.65;202.75;;;;;;;17.92;100.00;101082.41;5076170;28;20024;-70
2022/08/17 04:13:58;;;;;;;206.20;197.48;;;;;;;17.92;100.00;101082.41;5070289;28;20052;-70
2022/08/17 04:16:24;;;;;;;202.52;193.93;;;;;;;17.89;100.00;101080.13;5078191;28;20116;-70
2022/08/17 04:18:50;;;;;;;217.10;207.93;;;;;;;18.00;100.00;101087.59;5072381;28;20631;-70
2022/08/17 04:21:16;;;;;;;212.95;203.70;;;;;;;17.96;100.00;101091.66;5076446;28;20035;-70
2022/08/17 04:23:42;;;;;;;202.95;194.23;;;;;;;18.03;100.00;101103.25;5075720;28;20017;-70
2022/08/17 04:26:07;;;;;;;204.13;195.20;;;;;;;18.07;100.00;101103.66;5073242;28;20039;-70
2022/08/17 04:28:33;;;;;;;199.30;190.82;;;;;;;18.11;100.00;101104.13;5075210;28;20032;-70
2022/08/17 04:30:58;;;;;;;214.88;205.02;;;;;;;18.14;100.00;101109.06;5077314;28;20103;-70
2022/08/17 04:33:25;;;;;;;214.80;205.45;;;;;;;18.15;100.00;101110.72;5072466;28;20047;-70
2022/08/17 04:35:57;;;;;;;197.70;189.25;;;;;;;18.12;100.00;101105.75;5078361;28;20073;-70
2022/08/17 04:38:28;;;;;;;209.18;200.38;;;;;;;18.14;100.00;101112.59;5072120;28;20469;-70
2022/08/17 04:43:42;;;;;;;187.52;179.30;;;;;;;18.09;100.00;101097.13;5071996;28;20031;-70
2022/08/17 04:46:13;;;;;;;182.55;174.30;;;;;;;18.24;100.00;101114.91;5073702;28;20406;-70
2022/08/17 04:48:42;;;;;;;194.20;185.65;;;;;;;18.24;100.00;101109.56;5065909;28;20032;-70
2022/08/17 04:51:21;;;;;;;206.32;197.30;;;;;;;18.29;100.00;101109.78;5070761;28;20063;-70
2022/08/17 04:53:52;;;;;;;200.10;191.32;;;;;;;18.41;100.00;101110.91;5069341;28;20016;-70
2022/08/17 04:56:17;;;;;;;212.85;203.38;;;;;;;18.41;100.00;101105.56;5064269;28;20120;-69
2022/08/17 04:58:45;;;;;;;212.13;202.38;;;;;;;18.52;100.00;101116.75;5069191;28;20711;-69
2022/08/17 05:01:11;;;;;;;201.07;191.52;;;;;;;18.56;100.00;101126.03;5067008;28;20481;-70
2022/08/17 05:03:37;;;;;;;201.45;192.15;;;;;;;18.61;100.00;101127.06;5068546;28;20031;-70
2022/08/17 05:06:02;;;;;;;198.00;188.77;;;;;;;18.65;100.00;101125.66;5067933;28;20032;-70
2022/08/17 05:08:28;;;;;;;199.23;189.55;;;;;;;18.78;100.00;101124.13;5066908;28;20348;-69
2022/08/17 05:10:54;;;;;;;212.68;202.75;;;;;;;18.73;100.00;101110.47;5066240;28;20016;-70
2022/08/17 05:13:22;;;;;;;217.05;207.52;;;;;;;18.85;100.00;101116.97;5070157;28;20211;-69
2022/08/17 05:15:51;;;;;;;203.88;195.00;;;;;;;18.94;100.00;101114.94;5071258;28;20562;-70
2022/08/17 05:18:17;;;;;;;219.60;209.45;;;;;;;19.06;100.00;101124.06;5071958;28;20035;-69
2022/08/17 05:20:43;;;;;;;217.93;208.20;;;;;;;19.17;100.00;101122.69;5068978;28;20037;-69
2022/08/17 05:23:13;;;;;;;210.00;200.75;;;;;;;19.22;100.00;101129.06;5068224;28;20085;-69
2022/08/17 05:25:42;;;;;;;215.82;205.82;;;;;;;19.08;100.00;101125.53;5066730;28;20032;-70
2022/08/17 05:28:08;;;;;;;200.35;191.23;;;;;;;19.09;100.00;101129.81;5072927;28;20020;-69
2022/08/17 05:30:34;;;;;;;204.73;195.35;;;;;;;19.18;100.00;101133.16;5072259;28;20442;-69
2022/08/17 05:33:09;;;;;;;202.02;192.50;;;;;;;19.26;100.00;101134.84;5072672;28;20592;-70
2022/08/17 05:35:38;;;;;;;195.85;187.10;;;;;;;19.32;100.00;101131.38;5074477;28;20445;-69
2022/08/17 05:38:06;;;;;;;204.90;195.40;;;;;;;19.33;100.00;101133.81;5070942;28;20059;-70
2022/08/17 05:40:32;;;;;;;200.77;191.85;;;;;;;19.43;100.00;101135.31;5078429;28;20032;-69
2022/08/17 05:43:19;;;;;;;186.77;178.15;;;;;;;19.50;100.00;101133.47;5071566;28;20039;-69
2022/08/17 05:45:51;;;;;;;191.63;182.90;;;;;;;19.56;100.00;101139.88;5072061;28;20024;-69
2022/08/17 05:48:16;;;;;;;194.40;185.73;;;;;;;19.59;100.00;101140.28;5074729;28;20492;-69
2022/08/17 05:50:54;;;;;;;192.13;183.73;;;;;;;19.62;100.00;101137.22;5074820;28;20023;-70
2022/08/17 05:53:46;;;;;;;205.98;196.82;;;;;;;19.68;100.00;101144.41;5071093;28;20020;-70
2022/08/17 05:56:26;;;;;;;197.73;188.50;;;;;;;19.76;100.00;101148.00;5066336;28;20056;-70
2022/08/17 05:58:58;;;;;;;;;;;;;;;19.70;100.00;101147.75;5071835;28;20035;-70
2022/08/17 06:01:34;;;;;;;;;;;;;;;19.69;100.00;101150.63;5068618;28;20039;-70
2022/08/17 06:04:05;;;;;;;195.95;186.57;;;;;;;19.73;100.00;101144.69;5079812;28;19998;-70
2022/08/17 06:06:37;;;;;;;;;;;;;;;19.81;100.00;101145.53;5079275;28;20070;-69
2022/08/17 06:09:20;;;;;;;206.48;197.23;;;;;;;19.81;100.00;101138.31;5069367;28;19916;-69
2022/08/17 06:12:00;;;;;;;223.00;212.75;;;;;;;19.89;100.00;101150.69;5074463;28;20511;-69
2022/08/17 06:14:44;;;;;;;234.90;223.90;;;;;;;19.87;100.00;101150.88;5061710;28;20132;-69
2022/08/17 06:17:17;;;;;;;220.18;209.27;;;;;;;19.71;100.00;101160.13;5069540;28;20045;-70
2022/08/17 06:19:55;;;;;;;245.70;233.73;;;;;;;19.59;100.00;101160.88;5070446;28;20614;-70
2022/08/17 06:22:28;;;;;;;239.88;228.13;;;;;;;19.71;100.00;101173.53;5074436;28;20064;-70
2022/08/17 06:25:01;;;;;;;250.00;237.35;;;;;;;19.86;100.00;101168.00;5070125;28;20016;-70
2022/08/17 06:27:41;;;;;;;251.38;238.45;;;;;;;19.95;100.00;101171.31;5073776;28;20040;-70
2022/08/17 06:30:10;;;;;;;258.23;245.20;;;;;;;19.81;100.00;101175.78;5077813;28;20024;-70
2022/08/17 06:32:38;;;;;;;270.08;256.08;;;;;;;19.86;100.00;101172.50;5074620;28;20571;-70
2022/08/17 06:35:06;;;;;;;281.65;267.85;;;;;;;19.89;100.00;101174.78;5078909;28;21346;-70
2022/08/17 06:37:31;;;;;;;271.10;256.88;;;;;;;19.98;100.00;101178.91;5067593;28;20123;-70
2022/08/17 06:40:09;;;;;;;294.38;279.73;;;;;;;20.06;100.00;101185.94;5072667;28;20107;-70
2022/08/17 06:42:47;;;;;;;272.55;258.70;;;;;;;19.97;100.00;101171.06;5068184;28;20099;-69
2022/08/17 06:45:28;;;;;;;297.08;281.45;;;;;;;19.83;100.00;101176.41;5066667;28;20070;-70
2022/08/17 06:48:23;;;;;;;280.58;266.45;;;;;;;19.96;100.00;101206.94;5066709;28;20445;-69
2022/08/17 06:50:53;;;;;;;287.52;272.48;;;;;;;20.01;100.00;101194.59;5069982;28;20022;-70
2022/08/17 06:53:25;;;;;;;272.15;257.55;;;;;;;19.85;100.00;101186.94;5066931;28;20075;-70
2022/08/17 06:56:09;;;;;;;164.07;154.27;;;;;;;19.78;100.00;101196.81;5086539;28;20024;-70
2022/08/17 06:58:37;;;;;;;115.05;107.90;;;;;;;19.79;100.00;101203.81;5071050;28;20464;-69
2022/08/17 07:01:11;;;;;;;202.02;190.82;;;;;;;19.83;100.00;101205.06;5067501;28;20316;-69
2022/08/17 07:03:56;;;;;;;78.35;72.63;;;;;;;19.85;100.00;101197.66;5066996;28;20220;-71
2022/08/17 07:06:26;;;;;;;74.85;69.40;;;;;;;19.97;100.00;101204.06;5067765;28;20564;-71
2022/08/17 07:08:58;;;;;;;86.28;80.20;;;;;;;19.85;100.00;101208.38;5066292;28;20029;-70
2022/08/17 07:11:46;;;;;;;86.72;80.78;;;;;;;19.86;100.00;101210.00;5068323;28;20028;-69
2022/08/17 07:14:35;;;;;;;75.00;69.47;;;;;;;19.76;100.00;101210.41;5069667;28;20024;-69
2022/08/17 07:17:22;;;;;;;75.60;70.20;;;;;;;19.83;100.00;101208.56;5067480;28;20692;-69
2022/08/17 07:19:51;;;;;;;83.22;76.95;;;;;;;19.99;100.00;101193.97;5074348;28;20036;-70
2022/08/17 07:22:31;;;;;;;79.15;74.10;;;;;;;20.07;100.00;101196.44;5075973;28;20117;-70
2022/08/17 07:24:59;;;;;;;73.80;68.63;;;;;;;20.09;100.00;101189.03;5078016;28;20089;-69
2022/08/17 07:27:29;;;;;;;84.05;77.68;;;;;;;20.11;100.00;101197.69;5074753;28;20028;-69
2022/08/17 07:30:18;;;;;;;86.32;80.00;;;;;;;19.93;100.00;101192.13;5074649;28;20492;-71
2022/08/17 07:32:46;;;;;;;88.75;82.95;;;;;;;20.10;100.00;101192.56;5071198;28;20016;-69
2022/08/17 07:35:30;;;;;;;81.32;75.55;;;;;;;20.25;100.00;101192.34;5070377;28;20052;-69
2022/08/17 07:38:09;;;;;;;81.78;76.10;;;;;;;20.35;100.00;101193.56;5069520;28;20036;-69
2022/08/17 07:40:38;;;;;;;79.90;74.43;;;;;;;20.34;100.00;101201.84;5067021;28;21430;-69
2022/08/17 07:43:23;;;;;;;81.18;75.95;;;;;;;20.34;100.00;101204.53;5068414;28;20020;-69
2022/08/17 07:48:52;;;;;;;75.70;70.57;;;;;;;20.07;100.00;101164.28;5074234;28;20077;-69
2022/08/17 07:51:34;;;;;;;77.68;72.57;;;;;;;20.17;100.00;101201.41;5069644;28;20033;-69
2022/08/17 07:54:02;;;;;;;77.88;72.30;;;;;;;20.23;100.00;101211.31;5072335;28;20472;-71
2022/08/17 07:56:33;;;;;;;89.40;82.32;;;;;;;20.22;100.00;101224.91;5069712;28;20063;-70
2022/08/17 07:59:27;;;;;;;86.97;80.57;;;;;;;20.23;100.00;101232.75;5072407;28;20627;-69
2022/08/17 08:01:55;;;;;;;87.20;80.85;;;;;;;20.31;100.00;101245.13;5074213;28;20184;-69
2022/08/17 08:04:35;;;;;;;89.20;82.72;;;;;;;20.37;100.00;101238.94;5071974;28;20101;-69
2022/08/17 08:07:10;;;;;;;96.22;89.40;;;;;;;20.40;100.00;101227.81;5072777;28;20086;-70
2022/08/17 08:09:42;;;;;;;92.35;85.70;;;;;;;20.46;100.00;101224.31;5077907;28;20552;-69
2022/08/17 08:12:59;;;;;;;93.78;87.30;;;;;;;20.58;100.00;101223.72;5077566;28;20024;-70
2022/08/17 08:15:34;;;;;;;94.28;87.88;;;;;;;20.58;100.00;101211.16;5029562;28;20037;-69
2022/08/17 08:18:03;;;;;;;94.10;87.50;;;;;;;20.66;100.00;101213.59;5027340;28;20041;-69
2022/08/17 08:20:42;;;;;;;93.93;87.07;;;;;;;20.65;100.00;101211.97;5028931;28;20026;-70
2022/08/17 08:23:19;;;;;;;97.22;91.10;;;;;;;20.64;100.00;101201.44;5024899;28;20441;-70
2022/08/17 08:26:02;;;;;;;97.22;90.50;;;;;;;20.74;100.00;101204.53;5027130;28;20042;-69
2022/08/17 08:28:31;;;;;;;110.55;102.93;;;;;;;20.71;100.00;101213.00;5028476;28;20040;-69
2022/08/17 08:31:08;;;;;;;109.03;100.78;;;;;;;20.68;100.00;101216.06;5013858;28;20037;-69
2022/08/17 08:33:50;;;;;;;115.32;106.93;;;;;;;20.61;100.00;101207.22;5025919;28;20119;-69
2022/08/17 08:36:38;;;;;;;110.75;103.30;;;;;;;20.67;100.00;101184.94;5021407;28;20028;-69
2022/08/17 08:39:27;;;;;;;115.38;107.50;;;;;;;20.81;100.00;101185.75;5035533;28;20104;-70
2022/08/17 08:42:17;;;;;;;127.35;119.28;;;;;;;20.93;100.00;101203.66;5027821;28;20028;-69
2022/08/17 08:45:02;;;;;;;126.63;118.38;;;;;;;21.03;100.00;101199.72;5028691;28;20051;-69
2022/08/17 08:48:01;;;;;;;120.78;113.00;;;;;;;21.19;100.00;101204.63;5028794;28;20038;-69
2022/08/17 08:50:56;;;;;;;118.40;110.95;;;;;;;21.53;100.00;101208.84;5026480;28;20039;-69
2022/08/17 08:53:47;;;;;;;114.00;106.97;;;;;;;22.34;100.00;101203.81;5061701;28;21283;-69
2022/08/17 08:56:34;;;;;;;95.90;89.15;;;;;;;22.94;100.00;101198.69;5071791;28;20024;-70
2022/08/17 08:59:12;;;;;;;96.20;89.47;;;;;;;23.02;100.00;101207.53;5072342;28;20532;-70
2022/08/17 09:02:02;;;;;;;87.93;82.03;;;;;;;23.10;100.00;101207.25;5070602;28;20024;-70
2022/08/17 09:05:15;;;;;;;94.07;87.70;;;;;;;23.00;100.00;101211.31;5067500;28;20021;-70
2022/08/17 09:08:15;;;;;;;96.43;90.65;;;;;;;22.98;100.00;101207.97;5063489;28;20373;-70
2022/08/17 09:10:51;;;;;;;100.63;94.20;;;;;;;23.07;99.76;101226.56;5070338;28;20317;-70
2022/08/17 09:13:24;;;;;;;103.22;96.78;;;;;;;23.07;100.00;101243.53;5074144;28;20083;-70
2022/08/17 09:15:57;;;;;;;86.20;80.43;;;;;;;22.63;100.00;101244.56;5071765;28;20052;-70
2022/08/17 09:18:32;;;;;;;107.38;100.60;;;;;;;22.61;100.00;101242.09;5065399;28;20090;-69
2022/08/17 09:21:30;;;;;;;110.97;104.22;;;;;;;22.56;100.00;101231.16;5064132;28;20602;-71
2022/08/17 09:24:06;;;;;;;114.40;107.82;;;;;;;22.68;100.00;101239.34;5066410;28;20024;-69
2022/08/17 09:26:49;;;;;;;119.80;112.95;;;;;;;22.67;99.95;101240.34;5071106;28;20033;-69
2022/08/17 09:29:16;;;;;;;109.82;103.43;;;;;;;22.74;99.59;101238.47;5074515;28;20064;-69
2022/08/17 09:31:54;;;;;;;107.07;100.60;;;;;;;22.80;98.02;101232.19;5073192;28;20031;-69
2022/08/17 09:34:36;;;;;;;102.03;96.03;;;;;;;22.98;96.44;101234.06;5070214;28;20044;-70
2022/08/17 09:37:28;;;;;;;97.93;92.30;;;;;;;23.21;94.87;101233.44;5074076;28;20032;-70
2022/08/17 09:40:07;;;;;;;99.80;93.95;;;;;;;23.69;94.63;101238.03;5074579;28;20025;-70
2022/08/17 09:42:43;;;;;;;89.20;83.72;;;;;;;24.04;92.07;101237.38;5074938;28;20016;-70
2022/08/17 09:45:30;;;;;;;75.32;70.47;;;;;;;24.27;89.21;101235.78;5070485;28;20031;-70
2022/08/17 09:48:18;;;;;;;77.40;72.63;;;;;;;24.46;88.12;101223.84;5069868;28;20021;-70
2022/08/17 09:51:09;;;;;;;78.80;74.20;;;;;;;24.77;85.98;101235.38;5068037;28;20033;-70
2022/08/17 09:53:36;;;;;;;77.38;72.55;;;;;;;24.85;86.11;101229.63;5073722;28;20028;-70
2022/08/17 09:56:26;;;;;;;72.85;68.25;;;;;;;24.99;84.41;101228.31;5070392;28;20035;-71
2022/08/17 09:59:06;;;;;;;66.07;62.22;;;;;;;25.19;81.42;101230.66;5071974;28;20080;-69
2022/08/17 10:01:37;;;;;;;78.18;73.38;;;;;;;25.16;83.22;101224.91;5068507;28;20031;-71
2022/08/17 10:04:38;;;;;;;82.72;77.82;;;;;;;25.31;82.46;101227.13;5073707;28;20166;-69
2022/08/17 10:07:32;;;;;;;79.00;74.00;;;;;;;25.10;82.88;101239.34;5063453;28;20072;-69
2022/08/17 10:10:10;;;;;;;77.90;73.07;;;;;;;24.96;84.51;101239.59;5067564;28;20032;-69
2022/08/17 10:12:55;;;;;;;71.38;67.10;;;;;;;24.89;83.52;101240.78;5069878;28;20024;-69
2022/08/17 10:15:47;;;;;;;73.28;68.93;;;;;;;24.55;83.50;101233.25;5069794;28;20016;-69
2022/08/17 10:18:27;;;;;;;78.57;74.28;;;;;;;24.50;82.83;101233.16;5069893;28;20021;-69
2022/08/17 10:27:00;;;;;;;66.88;63.20;;;;;;;24.62;81.42;101250.16;5073742;28;20059;-69
2022/08/17 10:29:36;;;;;;;76.15;71.72;;;;;;;24.37;82.71;101244.13;5067651;28;20122;-69
2022/08/17 10:32:09;;;;;;;75.88;71.88;;;;;;;24.48;83.75;101226.31;5065997;28;20042;-70
2022/08/17 10:35:06;;;;;;;75.47;71.45;;;;;;;24.69;81.97;101236.53;5068238;28;20110;-69
2022/08/17 10:37:55;;;;;;;85.43;80.80;;;;;;;24.91;81.77;101231.41;5063364;28;20033;-69
2022/08/17 10:40:33;;;;;;;73.63;69.45;;;;;;;24.88;81.66;101237.25;5072653;28;20387;-69
2022/08/17 10:43:04;;;;;;;77.22;72.88;;;;;;;24.85;82.43;101237.75;5067487;28;20052;-69
2022/08/17 10:46:01;;;;;;;80.40;75.78;;;;;;;25.10;82.04;101233.94;5068912;28;20362;-69
2022/08/17 10:48:35;;;;;;;75.25;70.90;;;;;;;24.96;81.71;101223.41;5067763;28;20032;-70
2022/08/17 10:51:07;;;;;;;78.43;73.45;;;;;;;25.03;81.67;101223.28;5068874;28;20035;-69
2022/08/17 10:53:39;;;;;;;74.60;70.43;;;;;;;25.20;81.32;101228.81;5068267;28;20059;-69
2022/08/17 10:56:10;;;;;;;70.55;66.72;;;;;;;25.09;79.11;101227.72;5067424;28;20040;-69
2022/08/17 10:58:53;;;;;;;69.68;65.93;;;;;;;25.08;79.89;101236.06;5068516;28;20048;-69
2022/08/17 11:01:42;;;;;;;67.32;63.63;;;;;;;25.02;79.83;101235.97;5067531;28;20024;-69
2022/08/17 11:04:16;;;;;;;68.65;64.55;;;;;;;24.86;81.96;101244.75;5070835;28;20581;-69
2022/08/17 11:06:52;;;;;;;79.53;75.15;;;;;;;25.02;82.45;101233.25;5073819;28;20106;-70
2022/08/17 11:09:25;;;;;;;75.15;71.20;;;;;;;25.12;81.81;101231.84;5067733;28;20388;-69
2022/08/17 11:12:24;;;;;;;66.07;62.42;;;;;;;24.96;78.91;101228.00;5069854;28;20057;-69
2022/08/17 11:15:11;;;;;;;67.55;64.03;;;;;;;24.91;78.45;101231.41;5067489;28;20261;-69
2022/08/17 11:18:00;;;;;;;63.35;59.85;;;;;;;24.94;78.09;101228.22;5070346;28;20135;-69
2022/08/17 11:20:28;;;;;;;72.45;68.38;;;;;;;24.98;80.17;101228.56;5072078;28;20026;-70
2022/08/17 11:23:13;;;;;;;77.43;73.57;;;;;;;24.97;78.10;101218.81;5066572;28;20039;-69
2022/08/17 11:25:40;;;;;;;75.72;71.93;;;;;;;25.11;79.60;101219.38;5068047;28;20016;-69
2022/08/17 11:28:14;;;;;;;70.38;66.65;;;;;;;25.11;80.08;101232.88;5071383;28;20150;-69
2022/08/17 11:30:42;;;;;;;70.93;67.20;;;;;;;25.18;80.38;101228.19;5068476;28;20107;-70
2022/08/17 11:33:35;;;;;;;86.00;81.88;;;;;;;25.28;79.86;101231.09;5068376;28;20030;-69
2022/08/17 11:36:18;;;;;;;77.22;73.35;;;;;;;25.15;80.61;101223.25;5067249;28;20032;-69
2022/08/17 11:38:56;;;;;;;81.78;77.45;;;;;;;25.44;80.23;101230.38;5067350;28;20036;-70
2022/08/17 11:41:43;;;;;;;82.78;78.45;;;;;;;25.31;79.54;101219.03;5067447;28;20373;-69
2022/08/17 11:44:24;;;;;;;75.47;71.65;;;;;;;25.70;78.86;101228.16;5071607;28;20107;-70
2022/08/17 11:53:38;;;;;;;58.53;55.33;;;;;;;28.79;71.07;101222.84;5026436;28;20112;-70
2022/08/17 11:56:09;;;;;;;62.40;59.08;;;;;;;29.20;68.55;101223.94;5025053;28;20049;-69